createdAt,value
2023-02-03T00:01:48.413Z,8.15
2023-02-03T00:04:15.989Z,8.14
2023-02-03T00:06:43.398Z,8.15
2023-02-03T00:09:09.834Z,8.13
2023-02-03T00:11:36.309Z,8.11
2023-02-03T00:14:05.236Z,8.11
2023-02-03T00:16:31.665Z,8.10
2023-02-03T00:18:58.097Z,8.10
2023-02-03T00:21:24.525Z,8.13
2023-02-03T00:23:50.960Z,8.14
2023-02-03T00:26:17.869Z,8.16
2023-02-03T00:28:45.460Z,8.18
2023-02-03T00:31:30.063Z,8.20
2023-02-03T00:33:57.499Z,8.20
2023-02-03T00:36:25.464Z,8.19
2023-02-03T00:38:52.238Z,8.23
2023-02-03T00:41:20.449Z,8.26
2023-02-03T00:43:47.880Z,8.30
2023-02-03T00:46:15.046Z,8.29
2023-02-03T00:48:41.454Z,8.30
2023-02-03T00:51:07.878Z,8.26
2023-02-03T00:53:34.288Z,8.22
2023-02-03T00:56:01.840Z,8.21
2023-02-03T00:58:28.194Z,8.21
2023-02-03T01:00:57.045Z,8.22
2023-02-03T01:03:23.632Z,8.21
2023-02-03T01:05:50.104Z,8.21
2023-02-03T01:08:16.708Z,8.20
2023-02-03T01:10:43.163Z,8.22
2023-02-03T01:13:09.727Z,8.20
2023-02-03T01:15:36.153Z,8.20
2023-02-03T01:18:02.661Z,8.16
2023-02-03T01:20:29.480Z,8.16
2023-02-03T01:22:55.910Z,8.18
2023-02-03T01:25:22.654Z,8.20
2023-02-03T01:27:49.065Z,8.20
2023-02-03T01:30:15.736Z,8.16
2023-02-03T01:32:42.179Z,8.15
2023-02-03T01:35:08.767Z,8.16
2023-02-03T01:37:35.159Z,8.17
2023-02-03T01:40:01.581Z,8.16
2023-02-03T01:42:32.072Z,8.16
2023-02-03T01:45:01.048Z,8.13
2023-02-03T01:47:36.834Z,8.13
2023-02-03T01:50:20.668Z,8.12
2023-02-03T01:52:57.176Z,8.12
2023-02-03T01:55:28.593Z,8.12
2023-02-03T01:58:06.588Z,8.14
2023-02-03T02:00:32.966Z,8.13
2023-02-03T02:03:01.850Z,8.10
2023-02-03T02:05:34.012Z,8.09
2023-02-03T02:08:03.293Z,8.10
2023-02-03T02:10:31.704Z,8.09
2023-02-03T02:13:00.262Z,8.07
2023-02-03T02:16:00.142Z,8.07
2023-02-03T02:18:44.788Z,8.08
2023-02-03T02:21:20.242Z,8.10
2023-02-03T02:24:14.484Z,8.10
2023-02-03T02:27:05.887Z,8.11
2023-02-03T02:30:05.214Z,8.12
2023-02-03T02:33:03.920Z,8.10
2023-02-03T02:35:58.045Z,8.08
2023-02-03T02:38:46.467Z,8.08
2023-02-03T02:41:39.023Z,8.10
2023-02-03T02:44:23.516Z,8.13
2023-02-03T02:46:54.437Z,8.12
2023-02-03T02:49:41.357Z,8.10
2023-02-03T02:52:08.704Z,8.13
2023-02-03T02:54:39.277Z,8.13
2023-02-03T02:57:09.394Z,8.11
2023-02-03T02:59:35.791Z,8.18
2023-02-03T03:02:02.182Z,8.22
2023-02-03T03:04:31.545Z,8.23
2023-02-03T03:07:01.162Z,8.26
2023-02-03T03:09:36.124Z,8.27
2023-02-03T03:12:13.155Z,8.32
2023-02-03T03:14:43.908Z,8.33
2023-02-03T03:17:14.017Z,8.33
2023-02-03T03:19:50.069Z,8.36
2023-02-03T03:22:18.897Z,8.39
2023-02-03T03:24:52.801Z,8.42
2023-02-03T03:27:31.727Z,8.47
2023-02-03T03:30:02.782Z,8.50
2023-02-03T03:32:32.913Z,8.47
2023-02-03T03:35:01.820Z,8.49
2023-02-03T03:37:52.790Z,8.55
2023-02-03T03:40:29.461Z,8.62
2023-02-03T03:43:19.953Z,8.61
2023-02-03T03:45:49.476Z,8.59
2023-02-03T03:48:30.088Z,8.65
2023-02-03T03:51:02.853Z,8.66
2023-02-03T03:53:32.329Z,8.64
2023-02-03T03:56:01.581Z,8.60
2023-02-03T03:58:30.836Z,8.60
2023-02-03T04:01:01.563Z,8.64
2023-02-03T04:03:33.011Z,8.70
2023-02-03T04:05:59.444Z,8.67
2023-02-03T04:08:25.921Z,8.66
2023-02-03T04:10:52.324Z,8.65
2023-02-03T04:13:20.652Z,8.69
2023-02-03T04:15:47.130Z,8.67
2023-02-03T04:18:15.330Z,8.67
2023-02-03T04:20:43.308Z,8.73
2023-02-03T04:23:13.240Z,8.79
2023-02-03T04:25:39.623Z,8.81
2023-02-03T04:28:07.780Z,8.84
2023-02-03T04:30:34.288Z,8.86
2023-02-03T04:33:00.714Z,8.87
2023-02-03T04:35:27.306Z,8.84
2023-02-03T04:37:54.555Z,8.88
2023-02-03T04:40:20.996Z,8.91
2023-02-03T04:42:47.431Z,8.92
2023-02-03T04:45:15.540Z,8.92
2023-02-03T04:47:41.972Z,8.90
2023-02-03T04:50:08.912Z,8.89
2023-02-03T04:52:35.396Z,8.88
2023-02-03T04:55:01.999Z,8.87
2023-02-03T04:57:28.452Z,8.90
2023-02-03T04:59:54.827Z,8.94
2023-02-03T05:02:21.208Z,8.90
2023-02-03T05:04:47.604Z,8.91
2023-02-03T05:07:14.043Z,8.89
2023-02-03T05:09:40.490Z,8.88
2023-02-03T05:12:07.082Z,8.88
2023-02-03T05:14:33.485Z,8.87
2023-02-03T05:16:59.895Z,8.86
2023-02-03T05:19:26.398Z,8.89
2023-02-03T05:21:52.901Z,8.90
2023-02-03T05:24:28.872Z,8.89
2023-02-03T05:26:55.323Z,8.88
2023-02-03T05:29:21.726Z,8.89
2023-02-03T05:31:48.234Z,8.88
2023-02-03T05:34:14.713Z,8.85
2023-02-03T05:36:41.722Z,8.89
2023-02-03T05:39:10.979Z,8.92
2023-02-03T05:41:52.562Z,8.92
2023-02-03T05:44:29.996Z,8.92
2023-02-03T05:46:58.460Z,8.87
2023-02-03T05:49:28.272Z,8.84
2023-02-03T05:51:55.745Z,8.86
2023-02-03T05:54:23.030Z,8.85
2023-02-03T05:56:50.053Z,8.86
2023-02-03T05:59:16.510Z,8.86
2023-02-03T06:01:43.046Z,8.85
2023-02-03T06:04:09.844Z,8.87
2023-02-03T06:06:36.771Z,8.86
2023-02-03T06:09:08.638Z,8.83
2023-02-03T06:11:35.920Z,8.84
2023-02-03T06:14:03.798Z,8.84
2023-02-03T06:16:30.609Z,8.81
2023-02-03T06:18:59.499Z,8.81
2023-02-03T06:21:26.543Z,8.80
2023-02-03T06:23:53.020Z,8.82
2023-02-03T06:26:19.513Z,8.83
2023-02-03T06:28:47.048Z,8.85
2023-02-03T06:31:13.590Z,8.84
2023-02-03T06:33:40.621Z,8.82
2023-02-03T06:36:07.279Z,8.86
2023-02-03T06:38:33.745Z,8.86
2023-02-03T06:41:00.143Z,8.88
2023-02-03T06:43:26.633Z,8.87
2023-02-03T06:45:53.049Z,8.84
2023-02-03T06:48:23.770Z,8.83
2023-02-03T06:50:50.713Z,8.84
2023-02-03T06:53:17.367Z,8.83
2023-02-03T06:55:43.726Z,8.81
2023-02-03T06:58:10.515Z,8.81
2023-02-03T07:00:36.893Z,8.82
2023-02-03T07:03:03.447Z,8.82
2023-02-03T07:05:30.391Z,8.82
2023-02-03T07:07:56.881Z,8.80
2023-02-03T07:10:23.342Z,8.82
2023-02-03T07:12:50.868Z,8.81
2023-02-03T07:15:17.887Z,8.81
2023-02-03T07:17:44.294Z,8.83
2023-02-03T07:20:11.254Z,8.85
2023-02-03T07:22:38.667Z,8.82
2023-02-03T07:25:05.393Z,8.82
2023-02-03T07:27:31.907Z,8.81
2023-02-03T07:29:58.373Z,8.81
2023-02-03T07:32:24.769Z,8.82
2023-02-03T07:34:51.119Z,8.82
2023-02-03T07:37:17.467Z,8.83
2023-02-03T07:39:44.159Z,8.84
2023-02-03T07:42:10.534Z,8.85
2023-02-03T07:44:36.872Z,8.82
2023-02-03T07:47:03.236Z,8.81
2023-02-03T07:49:29.579Z,8.81
2023-02-03T07:51:56.515Z,8.80
2023-02-03T07:54:22.905Z,8.81
2023-02-03T07:56:49.247Z,8.82
2023-02-03T07:59:17.268Z,8.84
2023-02-03T08:01:43.668Z,8.85
2023-02-03T08:04:12.075Z,8.88
2023-02-03T08:06:38.414Z,8.89
2023-02-03T08:09:04.801Z,8.89
2023-02-03T08:11:32.480Z,8.90
2023-02-03T08:13:58.848Z,8.93
2023-02-03T08:16:25.478Z,8.92
2023-02-03T08:18:52.086Z,8.96
2023-02-03T08:21:18.481Z,8.99
2023-02-03T08:23:44.877Z,9.02
2023-02-03T08:26:11.305Z,9.03
2023-02-03T08:28:37.893Z,9.05
2023-02-03T08:31:10.698Z,9.06
2023-02-03T08:33:37.211Z,9.06
2023-02-03T08:36:05.673Z,9.08
2023-02-03T08:38:32.593Z,9.10
2023-02-03T08:40:59.243Z,9.11
2023-02-03T08:43:25.772Z,9.11
2023-02-03T08:45:52.240Z,9.12
2023-02-03T08:48:18.723Z,9.15
2023-02-03T08:50:51.894Z,9.19
2023-02-03T08:53:18.616Z,9.20
2023-02-03T08:55:45.018Z,9.22
2023-02-03T08:58:11.433Z,9.23
2023-02-03T09:00:38.105Z,9.26
2023-02-03T09:03:04.697Z,9.28
2023-02-03T09:05:32.435Z,9.29
2023-02-03T09:07:58.956Z,9.31
2023-02-03T09:10:25.652Z,9.35
2023-02-03T09:12:52.245Z,9.37
2023-02-03T09:15:18.691Z,9.38
2023-02-03T09:17:45.171Z,9.40
2023-02-03T09:20:15.021Z,9.43
2023-02-03T09:22:41.565Z,9.45
2023-02-03T09:25:08.300Z,9.46
2023-02-03T09:27:34.773Z,9.47
2023-02-03T09:30:01.332Z,9.49
2023-02-03T09:32:27.723Z,9.51
2023-02-03T09:34:54.141Z,9.54
2023-02-03T09:37:20.569Z,9.55
2023-02-03T09:39:48.750Z,9.53
2023-02-03T09:42:28.420Z,9.52
2023-02-03T09:45:06.246Z,9.53
2023-02-03T09:47:36.306Z,9.55
2023-02-03T09:50:11.802Z,9.55
2023-02-03T09:52:40.607Z,9.56
2023-02-03T09:55:42.735Z,9.56
2023-02-03T09:58:12.923Z,9.56
2023-02-03T10:00:51.577Z,9.56
2023-02-03T10:03:33.161Z,9.60
2023-02-03T10:06:11.714Z,9.61
2023-02-03T10:09:09.564Z,9.63
2023-02-03T10:11:54.249Z,9.65
2023-02-03T10:14:38.050Z,9.67
2023-02-03T10:17:16.595Z,9.68
2023-02-03T10:19:58.532Z,9.68
2023-02-03T10:22:29.158Z,9.70
2023-02-03T10:25:15.924Z,9.74
2023-02-03T10:27:43.962Z,9.74
2023-02-03T10:30:19.691Z,9.77
2023-02-03T10:32:49.116Z,9.79
2023-02-03T10:35:15.538Z,9.78
2023-02-03T10:37:47.400Z,9.77
2023-02-03T10:40:16.437Z,9.80
2023-02-03T10:43:03.633Z,9.83
2023-02-03T10:45:33.627Z,9.84
2023-02-03T10:48:00.547Z,9.88
2023-02-03T10:50:31.846Z,9.89
2023-02-03T10:53:20.506Z,9.94
2023-02-03T10:55:51.062Z,9.97
2023-02-03T10:58:25.498Z,9.98
2023-02-03T11:00:58.621Z,9.98
2023-02-03T11:03:31.569Z,9.98
2023-02-03T11:06:12.703Z,9.97
2023-02-03T11:08:42.847Z,9.94
2023-02-03T11:11:16.320Z,9.91
2023-02-03T11:13:42.763Z,9.89
2023-02-03T11:16:24.382Z,9.90
2023-02-03T11:19:01.342Z,9.90
2023-02-03T11:21:40.213Z,9.93
2023-02-03T11:24:23.488Z,9.93
2023-02-03T11:27:03.067Z,9.93
2023-02-03T11:29:32.280Z,9.93
2023-02-03T11:32:01.636Z,9.96
2023-02-03T11:34:38.451Z,10.01
2023-02-03T11:37:29.819Z,10.03
2023-02-03T11:40:12.323Z,10.05
2023-02-03T11:42:41.585Z,10.03
2023-02-03T11:45:22.572Z,10.02
2023-02-03T11:47:55.712Z,10.01
2023-02-03T11:50:27.874Z,10.01
2023-02-03T11:53:01.692Z,10.03
2023-02-03T11:55:36.582Z,10.02
2023-02-03T11:58:03.398Z,9.99
2023-02-03T12:01:04.350Z,9.96
2023-02-03T12:04:03.153Z,9.91
2023-02-03T12:06:35.578Z,9.91
2023-02-03T12:09:28.287Z,9.92
2023-02-03T12:12:09.941Z,9.86
2023-02-03T12:14:53.632Z,9.74
2023-02-03T12:17:45.594Z,9.65
2023-02-03T12:20:54.805Z,9.60
2023-02-03T12:23:33.357Z,9.58
2023-02-03T12:26:11.543Z,9.57
2023-02-03T12:28:43.894Z,9.52
2023-02-03T12:31:33.126Z,9.46
2023-02-03T12:34:14.057Z,9.42
2023-02-03T12:36:45.378Z,9.37
2023-02-03T12:39:20.531Z,9.33
2023-02-03T12:42:12.260Z,9.27
2023-02-03T12:44:50.731Z,9.22
2023-02-03T12:47:43.208Z,9.23
2023-02-03T12:50:18.707Z,9.24
2023-02-03T12:52:56.072Z,9.23
2023-02-03T12:55:29.306Z,9.23
2023-02-03T12:58:01.492Z,9.25
2023-02-03T13:00:38.024Z,9.25
2023-02-03T13:03:15.009Z,9.28
2023-02-03T13:05:48.138Z,9.28
2023-02-03T13:08:20.425Z,9.28
2023-02-03T13:10:52.911Z,9.31
2023-02-03T13:13:32.903Z,9.33
2023-02-03T13:16:01.768Z,9.36
2023-02-03T13:18:33.877Z,9.35
2023-02-03T13:21:00.703Z,9.37
2023-02-03T13:23:27.723Z,9.36
2023-02-03T13:25:57.015Z,9.36
2023-02-03T13:28:42.156Z,9.35
2023-02-03T13:31:17.713Z,9.35
2023-02-03T13:34:00.233Z,9.36
2023-02-03T13:36:35.759Z,9.37
2023-02-03T13:39:29.542Z,9.40
2023-02-03T13:42:11.373Z,9.39
2023-02-03T13:44:39.095Z,9.38
2023-02-03T13:47:06.500Z,9.37
2023-02-03T13:49:35.117Z,9.37
2023-02-03T13:52:01.872Z,9.37
2023-02-03T13:54:43.980Z,9.39
2023-02-03T13:57:21.975Z,9.38
2023-02-03T13:59:49.706Z,9.38
2023-02-03T14:02:19.210Z,9.36
2023-02-03T14:04:45.625Z,9.37
2023-02-03T14:07:31.399Z,9.38
2023-02-03T14:10:13.070Z,9.38
2023-02-03T14:12:57.236Z,9.37
2023-02-03T14:15:32.200Z,9.40
2023-02-03T14:18:19.206Z,9.40
2023-02-03T14:20:48.880Z,9.39
2023-02-03T14:23:40.355Z,9.38
2023-02-03T14:26:17.354Z,9.36
2023-02-03T14:28:46.438Z,9.35
2023-02-03T14:31:23.803Z,9.32
2023-02-03T14:34:01.569Z,9.32
2023-02-03T14:36:52.969Z,9.29
2023-02-03T14:39:22.576Z,9.27
2023-02-03T14:42:04.539Z,9.27
2023-02-03T14:44:40.301Z,9.26
2023-02-03T14:47:30.149Z,9.24
2023-02-03T14:50:08.660Z,9.27
2023-02-03T14:53:02.156Z,9.24
2023-02-03T14:55:36.387Z,9.21
2023-02-03T14:58:07.536Z,9.19
2023-02-03T15:00:35.498Z,9.15
2023-02-03T15:03:09.188Z,9.13
2023-02-03T15:05:40.671Z,9.11
2023-02-03T15:08:33.197Z,9.09
2023-02-03T15:11:00.747Z,9.06
2023-02-03T15:13:31.492Z,9.05
2023-02-03T15:16:04.168Z,9.01
2023-02-03T15:18:40.747Z,9.00
2023-02-03T15:21:16.673Z,8.98
2023-02-03T15:23:47.965Z,8.97
2023-02-03T15:26:44.397Z,8.94
2023-02-03T15:29:21.951Z,8.91
2023-02-03T15:31:53.363Z,8.90
2023-02-03T15:34:35.474Z,8.89
2023-02-03T15:37:18.258Z,8.87
2023-02-03T15:40:01.777Z,8.86
2023-02-03T15:42:31.137Z,8.86
2023-02-03T15:45:22.395Z,8.84
2023-02-03T15:48:00.604Z,8.84
2023-02-03T15:50:31.657Z,8.83
2023-02-03T15:53:07.658Z,8.82
2023-02-03T15:55:41.816Z,8.81
2023-02-03T15:58:20.358Z,8.80
2023-02-03T16:00:53.747Z,8.77
2023-02-03T16:03:39.220Z,8.76
2023-02-03T16:06:35.434Z,8.75
2023-02-03T16:09:02.677Z,8.71
2023-02-03T16:11:35.745Z,8.70
2023-02-03T16:14:04.960Z,8.68
2023-02-03T16:16:39.967Z,8.66
2023-02-03T16:19:13.928Z,8.62
2023-02-03T16:21:52.331Z,8.59
2023-02-03T16:24:40.999Z,8.56
2023-02-03T16:27:25.888Z,8.53
2023-02-03T16:30:11.513Z,8.50
2023-02-03T16:32:56.819Z,8.48
2023-02-03T16:35:42.505Z,8.46
2023-02-03T16:38:35.764Z,8.45
2023-02-03T16:41:22.527Z,8.43
2023-02-03T16:44:07.309Z,8.41
2023-02-03T16:46:52.348Z,8.39
2023-02-03T16:49:37.255Z,8.37
2023-02-03T16:52:05.925Z,8.34
2023-02-03T16:54:32.367Z,8.33
2023-02-03T16:56:58.927Z,8.30
2023-02-03T16:59:25.404Z,8.28
2023-02-03T17:01:52.124Z,8.24
2023-02-03T17:04:18.529Z,8.21
2023-02-03T17:06:44.968Z,8.20
2023-02-03T17:09:11.423Z,8.16
2023-02-03T17:11:37.827Z,8.15
2023-02-03T17:14:04.466Z,8.12
2023-02-03T17:16:31.219Z,8.12
2023-02-03T17:18:57.643Z,8.12
2023-02-03T17:21:27.152Z,8.10
2023-02-03T17:23:54.057Z,8.10
2023-02-03T17:26:21.098Z,8.08
2023-02-03T17:28:49.751Z,8.08
2023-02-03T17:31:19.335Z,8.06
2023-02-03T17:33:50.251Z,8.05
2023-02-03T17:36:19.491Z,8.03
2023-02-03T17:55:42.462Z,7.88
2023-02-03T17:58:08.968Z,7.85
2023-02-03T18:00:35.396Z,7.82
2023-02-03T18:03:01.857Z,7.81
2023-02-03T18:05:29.486Z,7.82
2023-02-03T18:07:56.227Z,7.79
2023-02-03T18:10:22.624Z,7.81
2023-02-03T18:12:49.379Z,7.81
2023-02-03T18:15:15.906Z,7.79
2023-02-03T18:17:42.325Z,7.77
2023-02-03T18:20:09.173Z,7.74
2023-02-03T18:22:35.605Z,7.73
2023-02-03T18:25:01.977Z,7.72
2023-02-03T18:27:28.381Z,7.72
2023-02-03T18:29:54.776Z,7.74
2023-02-03T18:32:21.208Z,7.76
2023-02-03T18:34:47.626Z,7.77
2023-02-03T18:37:13.995Z,7.78
2023-02-03T18:39:40.416Z,7.78
2023-02-03T18:42:07.312Z,7.78
2023-02-03T18:44:33.838Z,7.78
2023-02-03T18:47:06.958Z,7.79
2023-02-03T18:49:35.605Z,7.79
2023-02-03T18:52:02.227Z,7.79
2023-02-03T18:54:29.670Z,7.81
2023-02-03T18:56:58.831Z,7.82
2023-02-03T18:59:25.807Z,7.84
2023-02-03T19:01:52.990Z,7.83
2023-02-03T19:04:19.787Z,7.83
2023-02-03T19:06:46.807Z,7.83
2023-02-03T19:09:16.081Z,7.82
2023-02-03T19:11:43.126Z,7.83
2023-02-03T19:14:09.615Z,7.85
2023-02-03T19:16:36.043Z,7.84
2023-02-03T19:19:02.612Z,7.82
2023-02-03T19:21:29.077Z,7.82
2023-02-03T19:23:55.820Z,7.83
2023-02-03T19:26:22.209Z,7.80
2023-02-03T19:28:48.786Z,7.77
2023-02-03T19:31:15.742Z,7.74
2023-02-03T19:33:42.630Z,7.74
2023-02-03T19:36:10.720Z,7.72
2023-02-03T19:38:37.297Z,7.75
2023-02-03T19:41:03.881Z,7.77
2023-02-03T19:43:31.481Z,7.78
2023-02-03T19:45:58.486Z,7.79
2023-02-03T19:48:25.070Z,7.79
2023-02-03T19:50:51.504Z,7.78
2023-02-03T19:53:18.349Z,7.78
2023-02-03T19:55:45.848Z,7.79
2023-02-03T19:58:13.362Z,7.80
2023-02-03T20:00:40.703Z,7.82
2023-02-03T20:03:07.171Z,7.84
2023-02-03T20:05:34.452Z,7.83
2023-02-03T20:08:01.008Z,7.83
2023-02-03T20:10:27.861Z,7.84
2023-02-03T20:12:55.132Z,7.83
2023-02-03T20:15:21.780Z,7.84
2023-02-03T20:17:48.448Z,7.83
2023-02-03T20:20:16.413Z,7.82
2023-02-03T20:22:42.780Z,7.83
2023-02-03T20:25:09.421Z,7.85
2023-02-03T20:27:35.880Z,7.85
2023-02-03T20:30:04.028Z,7.84
2023-02-03T20:32:30.522Z,7.83
2023-02-03T20:34:57.637Z,7.82
2023-02-03T20:37:24.085Z,7.83
2023-02-03T20:39:50.556Z,7.82
2023-02-03T20:42:17.742Z,7.84
2023-02-03T20:44:44.857Z,7.85
2023-02-03T20:47:19.036Z,7.88
2023-02-03T20:49:47.716Z,7.93
2023-02-03T20:52:16.670Z,7.93
2023-02-03T20:54:43.661Z,7.90
2023-02-03T20:57:13.508Z,7.89
2023-02-03T20:59:40.053Z,7.90
2023-02-03T21:02:18.564Z,7.89
2023-02-03T21:05:00.597Z,7.88
2023-02-03T21:07:30.000Z,7.92
2023-02-03T21:10:00.157Z,7.91
2023-02-03T21:12:29.834Z,7.87
2023-02-03T21:14:57.060Z,7.88
2023-02-03T21:17:25.699Z,7.90
2023-02-03T21:19:53.640Z,7.88
2023-02-03T21:22:23.852Z,7.88
2023-02-03T21:24:56.982Z,7.88
2023-02-03T21:27:25.585Z,7.88
2023-02-03T21:29:55.816Z,7.87
2023-02-03T21:32:23.599Z,7.88
2023-02-03T21:34:50.350Z,7.88
2023-02-03T21:37:41.484Z,7.87
2023-02-03T21:40:32.299Z,7.87
2023-02-03T21:43:00.181Z,7.86
2023-02-03T21:45:34.233Z,7.88
2023-02-03T21:48:02.001Z,7.86
2023-02-03T21:50:33.975Z,7.85
2023-02-03T21:53:10.095Z,7.84
2023-02-03T21:55:37.954Z,7.85
2023-02-03T21:58:23.695Z,7.85
2023-02-03T22:00:54.447Z,7.83
2023-02-03T22:03:28.281Z,7.85
2023-02-03T22:06:23.745Z,7.84
2023-02-03T22:08:55.613Z,7.84
2023-02-03T22:11:25.390Z,7.84
2023-02-03T22:13:52.133Z,7.82
2023-02-03T22:16:19.953Z,7.81
2023-02-03T22:18:48.446Z,7.79
2023-02-03T22:21:15.436Z,7.78
2023-02-03T22:23:42.725Z,7.76
2023-02-03T22:26:10.918Z,7.76
2023-02-03T22:28:37.545Z,7.75
2023-02-03T22:31:05.149Z,7.76
2023-02-03T22:33:32.161Z,7.75
2023-02-03T22:35:58.641Z,7.76
2023-02-03T22:38:25.495Z,7.76
2023-02-03T22:40:52.814Z,7.79
2023-02-03T22:43:19.378Z,7.78
2023-02-03T22:45:45.826Z,7.79
2023-02-03T22:48:12.285Z,7.77
2023-02-03T22:50:39.036Z,7.77
2023-02-03T22:53:06.002Z,7.76
2023-02-03T22:55:32.796Z,7.76
2023-02-03T22:57:59.356Z,7.76
2023-02-03T23:00:26.607Z,7.76
2023-02-03T23:02:53.621Z,7.76
2023-02-03T23:05:20.639Z,7.74
2023-02-03T23:07:47.849Z,7.74
2023-02-03T23:10:17.584Z,7.73
2023-02-03T23:12:44.305Z,7.72
2023-02-03T23:15:11.342Z,7.70
2023-02-03T23:17:37.940Z,7.68
2023-02-03T23:20:06.116Z,7.66
2023-02-03T23:22:32.539Z,7.65
2023-02-03T23:25:00.224Z,7.66
2023-02-03T23:27:27.248Z,7.67
2023-02-03T23:29:53.769Z,7.65
2023-02-03T23:32:20.219Z,7.64
2023-02-03T23:35:05.185Z,7.63
2023-02-03T23:37:31.912Z,7.62
2023-02-03T23:39:58.384Z,7.62
2023-02-03T23:42:24.790Z,7.63
2023-02-03T23:44:51.381Z,7.65
2023-02-03T23:47:17.995Z,7.65
2023-02-03T23:49:44.388Z,7.64
2023-02-03T23:52:10.836Z,7.62
2023-02-03T23:54:37.200Z,7.62
2023-02-03T23:57:04.825Z,7.62
2023-02-03T23:59:31.738Z,7.60
